createdAt,value
2024-02-13T00:01:19.266Z,5.78
2024-02-13T00:06:21.482Z,4.57
2024-02-13T00:11:23.669Z,7.15
2024-02-13T00:16:25.932Z,7.90
2024-02-13T00:21:28.127Z,10.20
2024-02-13T00:26:30.410Z,10.77
2024-02-13T00:31:33.318Z,9.38
2024-02-13T00:36:35.440Z,10.25
2024-02-13T00:41:37.628Z,13.98
2024-02-13T00:46:39.916Z,14.02
2024-02-13T00:51:42.833Z,13.60
2024-02-13T00:56:45.367Z,11.88
2024-02-13T01:01:47.524Z,15.23
2024-02-13T01:06:49.799Z,11.32
2024-02-13T01:11:52.136Z,16.15
2024-02-13T01:16:54.357Z,28.17
2024-02-13T01:21:57.152Z,17.42
2024-02-13T01:26:59.630Z,15.30
2024-02-13T01:32:01.856Z,14.63
2024-02-13T01:37:04.786Z,11.75
2024-02-13T01:42:06.999Z,9.40
2024-02-13T01:47:09.504Z,8.52
2024-02-13T01:52:11.749Z,9.77
2024-02-13T01:57:14.339Z,8.45
2024-02-13T02:02:16.602Z,5.28
2024-02-13T02:07:20.047Z,7.30
2024-02-13T02:12:22.225Z,8.75
2024-02-13T02:17:24.428Z,6.35
2024-02-13T02:22:26.592Z,6.20
2024-02-13T02:27:28.799Z,3.65
2024-02-13T02:32:31.113Z,5.03
2024-02-13T02:37:36.289Z,2.97
2024-02-13T02:42:38.535Z,4.35
2024-02-13T02:47:41.370Z,4.53
2024-02-13T02:52:44.731Z,5.25
2024-02-13T02:57:47.396Z,6.72
2024-02-13T03:02:49.947Z,5.43
2024-02-13T03:07:52.190Z,3.03
2024-02-13T03:12:54.381Z,4.47
2024-02-13T03:17:56.762Z,5.20
2024-02-13T03:23:00.192Z,6.93
2024-02-13T03:28:03.967Z,6.82
2024-02-13T03:33:06.336Z,7.00
2024-02-13T03:38:08.584Z,7.95
2024-02-13T03:43:11.382Z,9.82
2024-02-13T03:48:16.767Z,7.55
2024-02-13T03:53:19.055Z,7.35
2024-02-13T03:58:21.251Z,10.55
2024-02-13T04:03:28.490Z,7.22
2024-02-13T04:08:30.774Z,10.30
2024-02-13T04:13:33.043Z,8.93
2024-02-13T04:18:35.649Z,7.13
2024-02-13T04:23:37.912Z,10.70
2024-02-13T04:28:43.190Z,11.55
2024-02-13T04:33:46.010Z,14.48
2024-02-13T04:38:48.927Z,12.55
2024-02-13T04:43:54.436Z,19.67
2024-02-13T04:48:56.726Z,11.15
2024-02-13T04:53:58.969Z,18.98
2024-02-13T04:59:01.227Z,19.20
2024-02-13T05:04:15.599Z,14.52
2024-02-13T05:09:17.916Z,22.30
2024-02-13T05:14:20.095Z,30.85
2024-02-13T05:19:23.035Z,33.65
2024-02-13T05:24:25.654Z,43.05
2024-02-13T05:29:27.913Z,27.67
2024-02-13T05:34:30.323Z,41.00
2024-02-13T05:39:32.877Z,31.40
2024-02-13T05:44:35.017Z,20.30
2024-02-13T05:49:37.689Z,34.88
2024-02-13T05:54:42.573Z,31.98
2024-02-13T05:59:47.099Z,20.88
2024-02-13T06:04:50.016Z,39.35
2024-02-13T06:09:52.248Z,21.70
2024-02-13T06:14:54.588Z,31.33
2024-02-13T06:20:03.036Z,29.10
2024-02-13T06:25:06.763Z,49.83
2024-02-13T06:30:09.429Z,39.92
2024-02-13T06:35:12.053Z,40.35
2024-02-13T06:40:14.461Z,31.27
2024-02-13T06:45:16.679Z,29.95
2024-02-13T06:50:19.134Z,19.30
2024-02-13T06:55:21.708Z,15.02
2024-02-13T07:00:26.850Z,13.55
2024-02-13T07:05:29.081Z,11.00
2024-02-13T07:10:31.426Z,15.98
2024-02-13T07:15:33.973Z,12.80
2024-02-13T07:20:36.576Z,16.25
2024-02-13T07:25:38.767Z,18.17
2024-02-13T07:30:40.878Z,18.35
2024-02-13T07:35:43.125Z,16.50
2024-02-13T07:40:46.379Z,14.13
2024-02-13T07:45:48.560Z,13.40
2024-02-13T07:50:51.498Z,13.60
2024-02-13T07:55:53.698Z,11.82
2024-02-13T08:00:56.273Z,14.40
2024-02-13T08:06:00.512Z,10.77
2024-02-13T08:11:02.719Z,13.13
2024-02-13T08:16:05.566Z,14.30
2024-02-13T08:21:08.223Z,6.55
2024-02-13T08:26:10.430Z,9.77
2024-02-13T08:31:12.638Z,5.75
2024-02-13T08:36:15.015Z,6.97
2024-02-13T08:41:17.402Z,6.60
2024-02-13T08:46:23.849Z,7.20
2024-02-13T08:51:29.536Z,10.77
2024-02-13T08:56:31.986Z,10.82
2024-02-13T09:01:35.436Z,12.60
2024-02-13T09:06:40.864Z,7.70
2024-02-13T09:11:43.216Z,8.50
2024-02-13T09:16:45.770Z,13.93
2024-02-13T09:21:47.891Z,4.95
2024-02-13T09:26:53.041Z,6.07
2024-02-13T09:31:56.069Z,4.28
2024-02-13T09:36:58.912Z,7.40
2024-02-13T09:42:01.178Z,11.88
2024-02-13T09:47:05.482Z,5.30
2024-02-13T09:52:13.687Z,4.28
2024-02-13T09:57:16.276Z,4.10
2024-02-13T10:02:22.664Z,4.45
2024-02-13T10:07:25.404Z,3.95
2024-02-13T10:12:27.849Z,6.97
2024-02-13T10:17:30.284Z,10.68
2024-02-13T10:22:32.701Z,12.73
2024-02-13T10:27:35.339Z,15.88
2024-02-13T10:32:45.315Z,10.95
2024-02-13T10:37:48.973Z,12.70
2024-02-13T10:42:51.890Z,6.50
2024-02-13T10:47:58.247Z,6.28
2024-02-13T10:53:02.887Z,6.68
2024-02-13T10:58:13.852Z,8.10
2024-02-13T11:03:21.850Z,6.90
2024-02-13T11:08:24.660Z,4.45
2024-02-13T11:13:28.084Z,3.03
2024-02-13T11:18:32.020Z,6.63
2024-02-13T11:23:35.353Z,6.43
2024-02-13T11:28:42.808Z,6.13
2024-02-13T11:34:15.306Z,4.35
2024-02-13T11:39:18.790Z,4.57
2024-02-13T11:44:21.999Z,5.22
2024-02-13T11:49:26.977Z,2.63
2024-02-13T11:54:31.648Z,1.42
2024-02-13T11:59:34.373Z,2.55
2024-02-13T12:04:36.542Z,2.17
2024-02-13T12:09:42.384Z,1.98
2024-02-13T12:14:44.938Z,3.35
2024-02-13T12:19:47.950Z,4.45
2024-02-13T12:24:52.040Z,1.83
2024-02-13T12:29:54.325Z,2.22
2024-02-13T12:35:12.596Z,1.05
2024-02-13T12:40:16.756Z,1.65
2024-02-13T12:45:21.142Z,8.65
2024-02-13T12:50:25.622Z,3.75
2024-02-13T12:55:27.932Z,1.75
2024-02-13T13:00:36.440Z,2.00
2024-02-13T13:05:42.852Z,3.07
2024-02-13T13:10:46.077Z,4.70
2024-02-13T13:15:49.121Z,2.25
2024-02-13T13:20:55.232Z,2.00
2024-02-13T13:26:03.423Z,5.45
2024-02-13T13:31:06.241Z,4.55
2024-02-13T13:36:09.245Z,3.50
2024-02-13T13:41:14.622Z,3.65
2024-02-13T13:46:17.530Z,4.05
2024-02-13T13:51:19.740Z,3.30
2024-02-13T13:56:21.917Z,1.85
2024-02-13T14:01:24.143Z,3.83
2024-02-13T14:06:26.449Z,3.40
2024-02-13T14:11:28.876Z,1.92
2024-02-13T14:16:31.007Z,4.63
2024-02-13T14:21:33.507Z,4.25
2024-02-13T14:26:36.076Z,4.20
2024-02-13T14:31:38.374Z,6.30
2024-02-13T14:36:42.913Z,32.17
2024-02-13T14:41:55.618Z,6.38
2024-02-13T14:46:59.024Z,5.00
2024-02-13T14:52:06.458Z,4.72
2024-02-13T14:57:12.706Z,5.32
2024-02-13T15:02:16.377Z,6.35
2024-02-13T15:07:20.409Z,6.50
2024-02-13T15:12:25.661Z,9.10
2024-02-13T15:17:27.922Z,9.38
2024-02-13T15:22:31.586Z,11.60
2024-02-13T15:27:34.134Z,7.82
2024-02-13T15:32:36.438Z,9.05
2024-02-13T15:37:57.670Z,6.93
2024-02-13T15:43:18.492Z,6.63
2024-02-13T15:48:20.761Z,9.85
2024-02-13T15:53:23.007Z,7.18
2024-02-13T15:58:26.772Z,5.25
2024-02-13T16:03:30.137Z,6.35
2024-02-13T16:08:32.515Z,3.88
2024-02-13T16:13:34.732Z,6.63
2024-02-13T16:18:37.491Z,5.68
2024-02-13T16:23:41.437Z,6.80
2024-02-13T16:28:43.782Z,11.98
2024-02-13T16:33:46.031Z,29.15
2024-02-13T16:38:48.697Z,10.50
2024-02-13T16:43:51.111Z,8.70
2024-02-13T16:48:55.098Z,13.68
2024-02-13T16:53:57.697Z,15.27
2024-02-13T16:58:59.886Z,12.40
2024-02-13T17:04:02.600Z,14.43
2024-02-13T17:09:05.155Z,14.90
2024-02-13T17:14:08.117Z,18.70
2024-02-13T17:19:15.259Z,19.48
2024-02-13T17:24:18.492Z,20.65
2024-02-13T17:29:22.018Z,11.95
2024-02-13T17:34:25.829Z,13.65
2024-02-13T17:39:28.282Z,36.75
2024-02-13T17:44:31.027Z,33.40
2024-02-13T17:49:33.334Z,23.48
2024-02-13T17:54:35.493Z,16.38
2024-02-13T17:59:38.024Z,18.98
2024-02-13T18:04:40.236Z,11.60
2024-02-13T18:09:42.337Z,11.07
2024-02-13T18:14:44.497Z,16.40
2024-02-13T18:19:46.748Z,17.20
2024-02-13T18:24:49.897Z,12.43
2024-02-13T18:29:54.016Z,25.02
2024-02-13T18:34:56.240Z,13.35
2024-02-13T18:39:58.766Z,11.50
2024-02-13T18:45:01.178Z,17.77
2024-02-13T18:50:03.826Z,28.50
2024-02-13T18:55:10.984Z,36.80
2024-02-13T19:00:13.606Z,24.40
2024-02-13T19:05:15.994Z,14.00
2024-02-13T19:10:20.348Z,14.35
2024-02-13T19:15:23.341Z,16.48
2024-02-13T19:20:25.658Z,14.68
2024-02-13T19:25:29.112Z,23.30
2024-02-13T19:30:31.327Z,29.77
2024-02-13T19:35:33.632Z,9.00
2024-02-13T19:40:35.834Z,8.75
2024-02-13T19:45:42.383Z,19.67
2024-02-13T19:50:44.579Z,22.52
2024-02-13T19:55:46.764Z,13.05
2024-02-13T20:00:49.079Z,11.00
2024-02-13T20:05:54.434Z,16.67
2024-02-13T20:10:58.799Z,19.63
2024-02-13T20:16:00.971Z,21.05
2024-02-13T20:21:05.334Z,19.15
2024-02-13T20:26:07.494Z,15.80
2024-02-13T20:31:09.667Z,20.20
2024-02-13T20:36:11.878Z,15.20
2024-02-13T20:41:14.528Z,22.23
2024-02-13T20:46:20.027Z,23.00
2024-02-13T20:51:22.179Z,28.60
2024-02-13T20:56:24.572Z,23.55
2024-02-13T21:01:36.800Z,27.80
2024-02-13T21:06:42.397Z,23.42
2024-02-13T21:11:46.906Z,28.70
2024-02-13T21:16:49.287Z,24.15
2024-02-13T21:22:09.820Z,17.75
2024-02-13T21:27:12.141Z,24.98
2024-02-13T21:32:15.654Z,21.27
2024-02-13T21:37:17.949Z,15.25
2024-02-13T21:42:20.047Z,19.15
2024-02-13T21:47:22.276Z,15.13
2024-02-13T21:52:25.243Z,16.70
2024-02-13T21:57:27.495Z,18.08
2024-02-13T22:02:32.770Z,16.23
2024-02-13T22:07:39.064Z,12.15
2024-02-13T22:12:44.352Z,15.07
2024-02-13T22:17:48.704Z,18.67
2024-02-13T22:22:50.908Z,13.90
2024-02-13T22:27:54.468Z,15.55
2024-02-13T22:32:57.126Z,20.85
2024-02-13T22:37:59.625Z,15.52
2024-02-13T22:43:02.593Z,18.27
2024-02-13T22:48:05.337Z,11.07
2024-02-13T22:53:10.009Z,12.20
2024-02-13T22:58:12.147Z,11.75
2024-02-13T23:03:14.743Z,12.43
2024-02-13T23:08:17.392Z,12.45
2024-02-13T23:13:25.863Z,11.63
2024-02-13T23:18:30.988Z,9.23
2024-02-13T23:23:36.721Z,14.43
2024-02-13T23:28:48.808Z,10.52
2024-02-13T23:33:58.580Z,12.23
2024-02-13T23:39:01.094Z,14.18
2024-02-13T23:44:04.402Z,10.90
2024-02-13T23:49:06.662Z,10.40
2024-02-13T23:54:09.229Z,9.80
2024-02-13T23:59:12.528Z,12.52
